createdAt,value
2023-02-12T00:00:11.999Z,49.14
2023-02-12T00:02:13.368Z,49.34
2023-02-12T00:04:14.704Z,49.76
2023-02-12T00:06:16.269Z,49.73
2023-02-12T00:08:17.617Z,49.30
2023-02-12T00:10:18.917Z,49.25
2023-02-12T00:12:20.222Z,49.76
2023-02-12T00:14:21.530Z,50.08
2023-02-12T00:16:22.821Z,49.59
2023-02-12T00:18:24.126Z,49.63
2023-02-12T00:20:25.440Z,49.59
2023-02-12T00:22:27.993Z,49.58
2023-02-12T00:24:29.335Z,49.72
2023-02-12T00:26:30.671Z,49.57
2023-02-12T00:28:32.044Z,49.62
2023-02-12T00:30:33.459Z,49.48
2023-02-12T00:32:34.784Z,49.82
2023-02-12T00:34:36.079Z,49.42
2023-02-12T00:36:37.378Z,49.56
2023-02-12T00:38:38.682Z,50.07
2023-02-12T00:40:39.987Z,50.15
2023-02-12T00:42:41.337Z,50.23
2023-02-12T00:44:42.652Z,49.98
2023-02-12T00:46:43.992Z,49.97
2023-02-12T00:48:45.403Z,49.70
2023-02-12T00:50:46.782Z,49.89
2023-02-12T00:52:48.084Z,50.11
2023-02-12T00:54:49.377Z,49.91
2023-02-12T00:56:50.710Z,50.01
2023-02-12T00:58:52.052Z,49.71
2023-02-12T01:00:53.398Z,49.91
2023-02-12T01:02:54.999Z,49.99
2023-02-12T01:04:56.405Z,50.00
2023-02-12T01:06:57.729Z,49.79
2023-02-12T01:08:59.086Z,49.37
2023-02-12T01:11:00.403Z,49.60
2023-02-12T01:13:01.707Z,49.55
2023-02-12T01:15:02.999Z,49.63
2023-02-12T01:17:04.294Z,49.81
2023-02-12T01:19:05.620Z,49.83
2023-02-12T01:21:06.944Z,49.98
2023-02-12T01:23:08.632Z,50.05
2023-02-12T01:25:09.937Z,50.27
2023-02-12T01:27:11.227Z,50.53
2023-02-12T01:29:12.642Z,50.64
2023-02-12T01:31:14.085Z,50.70
2023-02-12T01:33:15.443Z,50.69
2023-02-12T01:35:16.771Z,50.17
2023-02-12T01:37:18.104Z,50.31
2023-02-12T01:39:19.416Z,50.66
2023-02-12T01:41:20.708Z,50.64
2023-02-12T01:43:22.041Z,50.34
2023-02-12T01:45:23.373Z,50.43
2023-02-12T01:47:24.709Z,50.31
2023-02-12T01:49:26.122Z,50.60
2023-02-12T01:51:27.465Z,51.03
2023-02-12T01:53:28.764Z,50.56
2023-02-12T01:55:30.536Z,51.04
2023-02-12T01:57:31.844Z,46.48
2023-02-12T01:59:33.183Z,48.20
2023-02-12T02:01:34.572Z,47.65
2023-02-12T02:03:36.010Z,48.67
2023-02-12T02:05:37.385Z,47.24
2023-02-12T02:07:38.704Z,46.55
2023-02-12T02:09:40.038Z,45.79
2023-02-12T02:12:00.118Z,46.07
2023-02-12T02:14:20.095Z,46.41
2023-02-12T02:16:21.478Z,46.87
2023-02-12T02:18:22.787Z,47.29
2023-02-12T02:20:24.081Z,47.19
2023-02-12T02:22:25.451Z,47.64
2023-02-12T02:24:26.779Z,47.53
2023-02-12T02:26:28.589Z,47.80
2023-02-12T02:28:29.982Z,47.86
2023-02-12T02:30:31.358Z,47.78
2023-02-12T02:32:32.716Z,47.74
2023-02-12T02:34:34.048Z,47.76
2023-02-12T02:36:35.354Z,48.50
2023-02-12T02:38:36.659Z,48.45
2023-02-12T02:40:37.984Z,48.42
2023-02-12T02:42:39.317Z,48.57
2023-02-12T02:44:40.616Z,48.88
2023-02-12T02:46:41.995Z,48.91
2023-02-12T02:48:43.373Z,48.60
2023-02-12T02:50:44.707Z,49.24
2023-02-12T02:52:46.011Z,49.39
2023-02-12T02:54:47.366Z,49.13
2023-02-12T02:56:48.706Z,49.90
2023-02-12T02:58:49.999Z,49.53
2023-02-12T03:00:51.343Z,49.56
2023-02-12T03:02:52.838Z,49.35
2023-02-12T03:04:54.162Z,49.53
2023-02-12T03:06:55.448Z,49.51
2023-02-12T03:08:56.771Z,49.40
2023-02-12T03:10:58.073Z,49.69
2023-02-12T03:12:59.376Z,49.91
2023-02-12T03:15:00.788Z,50.96
2023-02-12T03:17:02.080Z,50.68
2023-02-12T03:19:03.475Z,50.94
2023-02-12T03:21:05.687Z,50.79
2023-02-12T03:23:07.024Z,51.00
2023-02-12T03:25:09.763Z,50.86
2023-02-12T03:27:12.378Z,51.14
2023-02-12T03:29:13.771Z,51.12
2023-02-12T03:31:15.093Z,51.12
2023-02-12T03:33:16.485Z,51.05
2023-02-12T03:35:17.856Z,51.47
2023-02-12T03:37:19.214Z,51.37
2023-02-12T03:39:20.545Z,51.28
2023-02-12T03:41:21.854Z,51.20
2023-02-12T03:43:23.212Z,51.19
2023-02-12T03:45:24.540Z,51.48
2023-02-12T03:47:25.871Z,51.82
2023-02-12T03:49:27.211Z,51.20
2023-02-12T03:51:28.546Z,51.45
2023-02-12T03:53:29.903Z,51.14
2023-02-12T03:55:31.279Z,51.54
2023-02-12T03:57:34.176Z,52.16
2023-02-12T03:59:35.467Z,51.45
2023-02-12T04:01:37.069Z,51.52
2023-02-12T04:03:38.439Z,51.32
2023-02-12T04:05:39.822Z,51.46
2023-02-12T04:07:41.114Z,51.20
2023-02-12T04:09:42.472Z,51.01
2023-02-12T04:11:43.812Z,50.89
2023-02-12T04:13:45.121Z,50.85
2023-02-12T04:15:46.724Z,51.55
2023-02-12T04:17:48.160Z,51.48
2023-02-12T04:19:49.711Z,51.38
2023-02-12T04:21:51.115Z,51.51
2023-02-12T04:23:52.443Z,51.00
2023-02-12T04:25:54.310Z,51.30
2023-02-12T04:27:55.902Z,51.28
2023-02-12T04:29:57.239Z,51.46
2023-02-12T04:31:58.603Z,51.47
2023-02-12T04:33:59.938Z,51.67
2023-02-12T04:36:02.213Z,51.91
2023-02-12T04:38:03.551Z,52.15
2023-02-12T04:40:04.872Z,52.01
2023-02-12T04:42:06.218Z,52.67
2023-02-12T04:44:07.524Z,53.11
2023-02-12T04:46:08.867Z,53.21
2023-02-12T04:48:10.677Z,53.49
2023-02-12T04:50:12.018Z,53.14
2023-02-12T04:52:13.327Z,53.27
2023-02-12T04:54:14.690Z,53.20
2023-02-12T04:56:16.112Z,53.37
2023-02-12T04:58:17.484Z,53.22
2023-02-12T05:00:18.866Z,53.31
2023-02-12T05:02:20.179Z,53.19
2023-02-12T05:04:21.490Z,53.44
2023-02-12T05:06:22.857Z,53.36
2023-02-12T05:08:24.161Z,53.08
2023-02-12T05:10:25.498Z,52.84
2023-02-12T05:12:26.806Z,53.25
2023-02-12T05:14:28.139Z,52.58
2023-02-12T05:16:29.566Z,52.44
2023-02-12T05:18:30.868Z,52.41
2023-02-12T05:20:32.209Z,52.93
2023-02-12T05:22:33.625Z,52.82
2023-02-12T05:24:34.924Z,52.80
2023-02-12T05:26:36.307Z,53.05
2023-02-12T05:28:37.704Z,52.86
2023-02-12T05:30:39.116Z,52.40
2023-02-12T05:32:40.440Z,52.44
2023-02-12T05:34:41.768Z,52.90
2023-02-12T05:36:43.147Z,52.94
2023-02-12T05:38:44.446Z,52.93
2023-02-12T05:40:45.843Z,52.39
2023-02-12T05:42:47.163Z,52.86
2023-02-12T05:44:48.500Z,52.36
2023-02-12T05:46:49.918Z,52.62
2023-02-12T05:48:51.232Z,52.55
2023-02-12T05:50:53.308Z,52.70
2023-02-12T05:52:54.662Z,52.64
2023-02-12T05:54:55.960Z,52.51
2023-02-12T05:56:57.355Z,52.77
2023-02-12T05:58:58.888Z,52.83
2023-02-12T06:01:00.210Z,52.51
2023-02-12T06:03:02.371Z,52.74
2023-02-12T06:05:03.716Z,53.01
2023-02-12T06:07:05.039Z,52.99
2023-02-12T06:09:06.421Z,52.73
2023-02-12T06:11:07.788Z,52.92
2023-02-12T06:13:09.079Z,53.34
2023-02-12T06:15:10.711Z,52.93
2023-02-12T06:17:12.072Z,53.82
2023-02-12T06:19:13.401Z,53.36
2023-02-12T06:21:14.741Z,53.23
2023-02-12T06:23:16.082Z,53.13
2023-02-12T06:25:17.424Z,53.10
2023-02-12T06:27:18.784Z,53.30
2023-02-12T06:29:20.134Z,52.90
2023-02-12T06:31:21.598Z,53.00
2023-02-12T06:33:22.977Z,53.08
2023-02-12T06:35:24.281Z,52.75
2023-02-12T06:37:25.907Z,52.69
2023-02-12T06:39:27.244Z,52.65
2023-02-12T06:41:28.540Z,53.05
2023-02-12T06:43:29.881Z,52.89
2023-02-12T06:45:31.197Z,52.97
2023-02-12T06:47:32.514Z,53.24
2023-02-12T06:49:33.820Z,52.60
2023-02-12T06:51:36.418Z,52.97
2023-02-12T06:53:37.843Z,52.83
2023-02-12T06:55:39.157Z,53.15
2023-02-12T06:57:40.491Z,52.99
2023-02-12T06:59:41.823Z,53.53
2023-02-12T07:01:43.226Z,53.53
2023-02-12T07:03:44.535Z,53.50
2023-02-12T07:05:46.267Z,53.75
2023-02-12T07:07:47.574Z,53.33
2023-02-12T07:09:48.916Z,53.51
2023-02-12T07:11:50.296Z,53.68
2023-02-12T07:13:51.594Z,54.09
2023-02-12T07:15:56.316Z,54.02
2023-02-12T07:17:57.819Z,54.13
2023-02-12T07:19:59.161Z,54.13
2023-02-12T07:22:00.503Z,53.77
2023-02-12T07:24:02.189Z,53.71
2023-02-12T07:26:03.521Z,53.54
2023-02-12T07:28:04.846Z,54.30
2023-02-12T07:30:06.298Z,54.37
2023-02-12T07:32:07.718Z,54.38
2023-02-12T07:34:09.377Z,54.58
2023-02-12T07:36:10.744Z,54.28
2023-02-12T07:38:15.119Z,54.36
2023-02-12T07:40:16.452Z,53.83
2023-02-12T07:42:17.980Z,53.53
2023-02-12T07:44:19.323Z,53.49
2023-02-12T07:46:20.748Z,53.25
2023-02-12T07:48:22.185Z,53.25
2023-02-12T07:50:23.476Z,53.14
2023-02-12T07:52:24.775Z,53.38
2023-02-12T07:54:26.069Z,53.45
2023-02-12T07:56:32.513Z,52.63
2023-02-12T07:58:33.864Z,52.86
2023-02-12T08:00:35.163Z,52.75
2023-02-12T08:02:36.516Z,52.70
2023-02-12T08:04:37.869Z,53.09
2023-02-12T08:06:42.277Z,52.63
2023-02-12T08:08:43.631Z,53.02
2023-02-12T08:10:44.936Z,53.03
2023-02-12T08:12:46.253Z,52.41
2023-02-12T08:14:47.575Z,52.45
2023-02-12T08:16:48.967Z,52.52
2023-02-12T08:18:53.056Z,52.86
2023-02-12T08:20:54.383Z,52.62
2023-02-12T08:22:55.680Z,52.69
2023-02-12T08:24:57.001Z,52.21
2023-02-12T08:26:58.431Z,52.44
2023-02-12T08:28:59.882Z,52.27
2023-02-12T08:31:02.252Z,52.17
2023-02-12T08:33:03.564Z,52.23
2023-02-12T08:35:04.855Z,52.63
2023-02-12T08:37:06.170Z,52.39
2023-02-12T08:39:07.466Z,52.12
2023-02-12T08:41:08.869Z,52.12
2023-02-12T08:43:10.208Z,51.93
2023-02-12T08:45:11.558Z,52.04
2023-02-12T08:47:12.847Z,52.13
2023-02-12T08:49:14.255Z,52.01
2023-02-12T08:51:15.671Z,51.90
2023-02-12T08:53:16.961Z,52.03
2023-02-12T08:55:18.263Z,51.92
2023-02-12T08:57:19.573Z,51.83
2023-02-12T08:59:20.865Z,51.43
2023-02-12T09:01:22.406Z,51.66
2023-02-12T09:03:23.782Z,50.98
2023-02-12T09:05:25.115Z,50.84
2023-02-12T09:07:26.409Z,51.04
2023-02-12T09:09:27.733Z,50.63
2023-02-12T09:11:32.144Z,50.45
2023-02-12T09:13:33.462Z,50.59
2023-02-12T09:15:34.764Z,50.43
2023-02-12T09:17:36.063Z,50.42
2023-02-12T09:19:37.356Z,50.11
2023-02-12T09:21:41.718Z,49.89
2023-02-12T09:23:43.024Z,49.87
2023-02-12T09:25:44.336Z,50.10
2023-02-12T09:27:45.633Z,49.59
2023-02-12T09:29:46.948Z,49.68
2023-02-12T09:31:48.425Z,49.58
2023-02-12T09:33:53.303Z,49.71
2023-02-12T09:35:56.284Z,49.68
2023-02-12T09:37:57.788Z,49.63
2023-02-12T09:39:59.100Z,49.65
2023-02-12T09:42:00.457Z,49.72
2023-02-12T09:44:01.752Z,49.70
2023-02-12T09:46:03.094Z,50.08
2023-02-12T09:48:04.497Z,49.99
2023-02-12T09:50:05.938Z,50.26
2023-02-12T09:52:07.239Z,50.08
2023-02-12T09:54:08.575Z,50.11
2023-02-12T09:56:10.692Z,50.23
2023-02-12T09:58:11.985Z,50.11
2023-02-12T10:00:13.295Z,50.00
2023-02-12T10:02:14.628Z,50.27
2023-02-12T10:04:15.956Z,47.44
2023-02-12T10:06:17.355Z,49.81
2023-02-12T10:08:22.144Z,49.10
2023-02-12T10:10:25.284Z,50.50
2023-02-12T10:12:26.635Z,49.60
2023-02-12T10:14:27.937Z,48.89
2023-02-12T10:16:29.229Z,47.97
2023-02-12T10:18:30.573Z,48.02
2023-02-12T10:20:32.088Z,48.19
2023-02-12T10:22:33.402Z,47.20
2023-02-12T10:24:34.705Z,47.38
2023-02-12T10:26:36.029Z,47.22
2023-02-12T10:28:38.803Z,47.14
2023-02-12T10:30:40.231Z,47.46
2023-02-12T10:32:41.541Z,47.46
2023-02-12T10:34:42.952Z,47.72
2023-02-12T10:36:44.283Z,47.39
2023-02-12T10:38:47.111Z,47.63
2023-02-12T10:40:50.334Z,47.65
2023-02-12T10:42:51.731Z,47.72
2023-02-12T10:44:55.799Z,47.91
2023-02-12T10:46:57.180Z,48.14
2023-02-12T10:48:58.904Z,48.48
2023-02-12T10:51:00.354Z,48.35
2023-02-12T10:53:06.115Z,48.41
2023-02-12T10:55:09.046Z,48.47
2023-02-12T10:57:13.086Z,48.15
2023-02-12T10:59:14.424Z,48.11
2023-02-12T11:01:15.788Z,48.15
2023-02-12T11:03:17.087Z,48.18
2023-02-12T11:05:18.473Z,48.47
2023-02-12T11:07:19.890Z,48.41
2023-02-12T11:09:21.192Z,48.06
2023-02-12T11:11:22.519Z,48.19
2023-02-12T11:13:23.819Z,47.94
2023-02-12T11:15:25.143Z,47.91
2023-02-12T11:17:26.499Z,48.29
2023-02-12T11:19:27.843Z,48.15
2023-02-12T11:21:29.188Z,48.28
2023-02-12T11:23:30.596Z,48.03
2023-02-12T11:25:31.950Z,48.10
2023-02-12T11:27:33.347Z,47.91
2023-02-12T11:29:34.687Z,47.94
2023-02-12T11:31:37.011Z,47.93
2023-02-12T11:33:38.969Z,47.99
2023-02-12T11:35:40.274Z,48.03
2023-02-12T11:37:41.605Z,48.45
2023-02-12T11:39:42.904Z,48.10
2023-02-12T11:41:44.216Z,47.99
2023-02-12T11:43:45.548Z,48.28
2023-02-12T11:45:48.024Z,48.60
2023-02-12T11:47:49.399Z,48.77
2023-02-12T11:49:50.857Z,48.58
2023-02-12T11:51:52.228Z,47.89
2023-02-12T11:53:53.523Z,48.32
2023-02-12T11:55:54.861Z,48.36
2023-02-12T11:57:56.147Z,48.93
2023-02-12T11:59:57.491Z,48.50
2023-02-12T12:01:58.947Z,48.64
2023-02-12T12:04:00.268Z,49.08
2023-02-12T12:06:02.217Z,48.87
2023-02-12T12:08:03.543Z,48.90
2023-02-12T12:10:04.877Z,48.94
2023-02-12T12:12:06.260Z,48.80
2023-02-12T12:14:07.566Z,48.85
2023-02-12T12:16:27.756Z,48.84
2023-02-12T12:18:48.024Z,48.96
2023-02-12T12:20:49.340Z,48.88
2023-02-12T12:22:53.566Z,48.99
2023-02-12T12:24:54.978Z,48.98
2023-02-12T12:27:00.625Z,48.81
2023-02-12T12:29:02.256Z,49.29
2023-02-12T12:31:03.725Z,48.93
2023-02-12T12:33:05.061Z,48.79
2023-02-12T12:35:06.362Z,49.37
2023-02-12T12:37:07.684Z,49.79
2023-02-12T12:39:09.398Z,49.00
2023-02-12T12:41:10.697Z,49.50
2023-02-12T12:43:12.010Z,49.72
2023-02-12T12:45:13.306Z,49.86
2023-02-12T12:47:14.591Z,50.33
2023-02-12T12:49:15.889Z,50.12
2023-02-12T12:51:17.180Z,49.94
2023-02-12T12:53:18.480Z,49.88
2023-02-12T12:55:19.811Z,50.37
2023-02-12T12:57:21.452Z,50.48
2023-02-12T12:59:22.828Z,50.38
2023-02-12T13:01:27.089Z,50.60
2023-02-12T13:03:28.685Z,50.44
2023-02-12T13:05:30.015Z,50.21
2023-02-12T13:07:34.347Z,50.67
2023-02-12T13:09:35.685Z,50.03
2023-02-12T13:11:37.004Z,50.20
2023-02-12T13:13:38.413Z,49.80
2023-02-12T13:15:39.985Z,50.11
2023-02-12T13:17:45.875Z,50.35
2023-02-12T13:19:47.407Z,50.68
2023-02-12T13:21:48.717Z,50.65
2023-02-12T13:23:50.083Z,50.92
2023-02-12T13:25:51.481Z,50.73
2023-02-12T13:27:55.522Z,51.36
2023-02-12T13:29:56.854Z,51.05
2023-02-12T13:32:01.383Z,51.18
2023-02-12T13:34:02.838Z,50.92
2023-02-12T13:36:04.168Z,51.24
2023-02-12T13:38:05.511Z,50.74
2023-02-12T13:40:06.874Z,50.44
2023-02-12T13:42:08.172Z,50.42
2023-02-12T13:44:09.480Z,50.05
2023-02-12T13:46:10.832Z,49.80
2023-02-12T13:48:12.146Z,49.92
2023-02-12T13:50:13.606Z,49.82
2023-02-12T13:52:14.966Z,49.97
2023-02-12T13:54:16.336Z,49.34
2023-02-12T13:56:17.638Z,49.55
2023-02-12T13:58:18.989Z,48.96
2023-02-12T14:00:20.344Z,49.35
2023-02-12T14:02:21.772Z,49.13
2023-02-12T14:04:23.283Z,48.78
2023-02-12T14:06:25.205Z,49.09
2023-02-12T14:08:26.542Z,48.82
2023-02-12T14:10:27.953Z,48.81
2023-02-12T14:12:29.455Z,48.71
2023-02-12T14:14:30.808Z,48.73
2023-02-12T14:16:32.163Z,48.32
2023-02-12T14:18:36.492Z,48.71
2023-02-12T14:20:38.079Z,48.30
2023-02-12T14:22:39.386Z,48.48
2023-02-12T14:24:40.731Z,48.27
2023-02-12T14:26:42.021Z,48.32
2023-02-12T14:28:43.395Z,48.24
2023-02-12T14:30:44.710Z,48.29
2023-02-12T14:32:46.034Z,48.24
2023-02-12T14:34:47.612Z,48.75
2023-02-12T14:36:49.259Z,48.71
2023-02-12T14:38:50.579Z,48.21
2023-02-12T14:40:52.609Z,48.23
2023-02-12T14:42:53.923Z,48.53
2023-02-12T14:44:55.993Z,48.53
2023-02-12T14:46:57.438Z,48.84
2023-02-12T14:49:04.971Z,48.70
2023-02-12T14:51:06.330Z,49.23
2023-02-12T14:53:07.621Z,49.11
2023-02-12T14:55:08.986Z,49.27
2023-02-12T14:57:10.330Z,49.53
2023-02-12T14:59:14.292Z,49.56
2023-02-12T15:01:18.347Z,49.46
2023-02-12T15:03:19.919Z,49.61
2023-02-12T15:05:21.259Z,49.52
2023-02-12T15:07:22.653Z,49.52
2023-02-12T15:09:23.944Z,49.13
2023-02-12T15:11:25.288Z,49.23
2023-02-12T15:13:26.864Z,49.03
2023-02-12T15:15:31.377Z,48.93
2023-02-12T15:17:32.724Z,49.04
2023-02-12T15:19:34.228Z,48.70
2023-02-12T15:21:35.534Z,48.84
2023-02-12T15:23:36.979Z,48.91
2023-02-12T15:25:38.267Z,48.31
2023-02-12T15:27:39.565Z,48.32
2023-02-12T15:29:40.874Z,48.42
2023-02-12T15:31:42.235Z,48.32
2023-02-12T15:33:43.597Z,48.49
2023-02-12T15:35:45.009Z,48.02
2023-02-12T15:37:46.314Z,48.03
2023-02-12T15:39:48.068Z,47.98
2023-02-12T15:41:49.445Z,47.83
2023-02-12T15:43:50.743Z,47.95
2023-02-12T15:45:52.057Z,47.78
2023-02-12T15:47:53.352Z,47.73
2023-02-12T15:49:54.683Z,47.71
2023-02-12T15:51:55.995Z,48.05
2023-02-12T15:53:57.489Z,48.13
2023-02-12T15:56:01.706Z,47.70
2023-02-12T15:58:03.080Z,47.67
2023-02-12T16:00:07.228Z,47.74
2023-02-12T16:02:08.527Z,48.01
2023-02-12T16:04:09.981Z,47.70
2023-02-12T16:06:13.617Z,48.08
2023-02-12T16:08:14.933Z,47.66
2023-02-12T16:10:16.259Z,47.98
2023-02-12T16:12:18.372Z,47.51
2023-02-12T16:14:20.052Z,47.54
2023-02-12T16:16:21.408Z,47.90
2023-02-12T16:18:23.308Z,47.97
2023-02-12T16:20:25.603Z,47.63
2023-02-12T16:22:29.916Z,48.02
2023-02-12T16:24:31.384Z,47.82
2023-02-12T16:26:32.684Z,47.96
2023-02-12T16:28:34.161Z,47.93
2023-02-12T16:30:38.719Z,47.95
2023-02-12T16:32:40.045Z,48.17
2023-02-12T16:34:41.348Z,48.49
2023-02-12T16:36:42.635Z,48.28
2023-02-12T16:38:44.023Z,48.18
2023-02-12T16:40:45.456Z,48.42
2023-02-12T16:42:46.790Z,48.53
2023-02-12T16:44:48.091Z,48.45
2023-02-12T16:46:52.620Z,48.46
2023-02-12T16:48:53.950Z,48.40
2023-02-12T16:50:55.384Z,48.18
2023-02-12T16:53:05.571Z,48.10
2023-02-12T16:55:07.825Z,48.28
2023-02-12T16:57:09.860Z,48.20
2023-02-12T16:59:14.272Z,48.10
2023-02-12T17:01:18.568Z,48.36
2023-02-12T17:03:19.942Z,48.58
2023-02-12T17:05:23.072Z,48.69
2023-02-12T17:07:24.434Z,48.65
2023-02-12T17:09:25.772Z,48.87
2023-02-12T17:11:28.046Z,48.83
2023-02-12T17:13:29.470Z,48.94
2023-02-12T17:15:30.810Z,48.80
2023-02-12T17:17:32.119Z,49.15
2023-02-12T17:19:33.408Z,49.22
2023-02-12T17:21:38.274Z,49.25
2023-02-12T17:23:41.205Z,49.03
2023-02-12T17:25:42.662Z,48.97
2023-02-12T17:27:43.989Z,48.88
2023-02-12T17:29:45.339Z,48.70
2023-02-12T17:31:49.554Z,48.72
2023-02-12T17:33:50.923Z,48.50
2023-02-12T17:35:52.234Z,48.27
2023-02-12T17:37:53.524Z,48.00
2023-02-12T17:39:56.235Z,48.05
2023-02-12T17:42:00.049Z,47.76
2023-02-12T17:44:01.400Z,48.08
2023-02-12T17:46:02.841Z,47.84
2023-02-12T17:48:04.188Z,48.11
2023-02-12T17:50:05.880Z,47.86
2023-02-12T17:52:07.580Z,47.82
2023-02-12T17:54:08.993Z,47.92
2023-02-12T17:56:10.298Z,47.79
2023-02-12T17:58:11.628Z,47.86
2023-02-12T18:00:13.086Z,47.31
2023-02-12T18:02:14.380Z,47.59
2023-02-12T18:04:15.890Z,47.59
2023-02-12T18:06:17.217Z,47.84
2023-02-12T18:08:18.555Z,48.34
2023-02-12T18:10:19.851Z,47.17
2023-02-12T18:12:21.207Z,47.51
2023-02-12T18:14:22.507Z,47.35
2023-02-12T18:16:23.835Z,48.02
2023-02-12T18:18:25.205Z,47.73
2023-02-12T18:20:26.645Z,48.20
2023-02-12T18:22:27.995Z,47.20
2023-02-12T18:24:31.643Z,47.66
2023-02-12T18:26:32.989Z,47.84
2023-02-12T18:28:34.349Z,48.72
2023-02-12T18:30:36.676Z,47.79
2023-02-12T18:32:38.040Z,47.21
2023-02-12T18:34:39.401Z,47.29
2023-02-12T18:36:43.357Z,48.26
2023-02-12T18:38:50.324Z,47.07
2023-02-12T18:40:51.625Z,47.68
2023-02-12T18:42:52.935Z,47.50
2023-02-12T18:44:54.241Z,48.09
2023-02-12T18:46:57.375Z,47.99
2023-02-12T18:48:58.723Z,48.38
2023-02-12T18:51:00.043Z,48.33
2023-02-12T18:53:01.355Z,47.69
2023-02-12T18:55:02.689Z,48.17
2023-02-12T18:57:03.995Z,48.66
2023-02-12T18:59:08.222Z,49.00
2023-02-12T19:01:09.700Z,49.02
2023-02-12T19:03:11.002Z,48.85
2023-02-12T19:05:12.320Z,48.91
2023-02-12T19:07:13.663Z,49.01
2023-02-12T19:09:16.603Z,48.32
2023-02-12T19:11:20.788Z,48.43
2023-02-12T19:13:22.106Z,48.45
2023-02-12T19:15:35.695Z,48.72
2023-02-12T19:17:39.993Z,48.27
2023-02-12T19:19:41.331Z,48.20
2023-02-12T19:21:45.296Z,48.61
2023-02-12T19:23:46.631Z,48.55
2023-02-12T19:25:47.936Z,48.92
2023-02-12T19:27:49.255Z,49.11
2023-02-12T19:29:50.615Z,48.77
2023-02-12T19:31:52.084Z,48.61
2023-02-12T19:33:53.452Z,48.52
2023-02-12T19:35:57.784Z,48.43
2023-02-12T19:37:59.089Z,48.81
2023-02-12T19:40:00.431Z,48.56
2023-02-12T19:42:01.741Z,48.85
2023-02-12T19:44:03.088Z,48.50
2023-02-12T19:46:04.444Z,48.00
2023-02-12T19:48:09.029Z,48.91
2023-02-12T19:50:13.208Z,48.95
2023-02-12T19:52:14.532Z,47.93
2023-02-12T19:54:15.875Z,48.84
2023-02-12T19:56:17.216Z,48.58
2023-02-12T19:58:18.527Z,49.09
2023-02-12T20:00:19.851Z,48.81
2023-02-12T20:02:21.242Z,50.85
2023-02-12T20:04:22.679Z,48.94
2023-02-12T20:06:23.983Z,49.03
2023-02-12T20:08:25.283Z,49.62
2023-02-12T20:10:26.649Z,49.42
2023-02-12T20:12:30.633Z,49.33
2023-02-12T20:14:31.980Z,49.73
2023-02-12T20:16:37.995Z,49.51
2023-02-12T20:18:39.605Z,49.68
2023-02-12T20:20:40.979Z,49.77
2023-02-12T20:22:42.303Z,49.24
2023-02-12T20:24:43.628Z,49.66
2023-02-12T20:26:44.949Z,49.60
2023-02-12T20:28:46.562Z,50.10
2023-02-12T20:30:48.882Z,49.98
2023-02-12T20:32:50.419Z,50.14
2023-02-12T20:34:51.747Z,50.15
2023-02-12T20:36:54.197Z,50.38
2023-02-12T20:38:58.464Z,50.20
2023-02-12T20:40:59.759Z,50.29
2023-02-12T20:43:01.057Z,50.00
2023-02-12T20:45:02.400Z,50.59
2023-02-12T20:47:03.695Z,51.38
2023-02-12T20:49:05.051Z,51.10
2023-02-12T20:51:06.414Z,51.20
2023-02-12T20:53:07.943Z,50.24
2023-02-12T20:55:09.242Z,50.76
2023-02-12T20:57:10.566Z,50.39
2023-02-12T20:59:12.457Z,50.63
2023-02-12T21:01:16.745Z,49.46
2023-02-12T21:03:18.064Z,50.02
2023-02-12T21:05:19.516Z,49.70
2023-02-12T21:07:20.868Z,49.67
2023-02-12T21:09:22.250Z,50.04
2023-02-12T21:11:23.553Z,50.50
2023-02-12T21:13:25.427Z,48.76
2023-02-12T21:15:26.787Z,49.56
2023-02-12T21:17:34.829Z,50.02
2023-02-12T21:19:36.962Z,50.31
2023-02-12T21:21:38.349Z,50.16
2023-02-12T21:23:39.651Z,49.96
2023-02-12T21:25:40.965Z,49.94
2023-02-12T21:27:45.073Z,50.17
2023-02-12T21:29:46.379Z,49.66
2023-02-12T21:31:47.822Z,49.97
2023-02-12T21:33:49.215Z,49.50
2023-02-12T21:35:50.519Z,49.64
2023-02-12T21:37:51.812Z,49.81
2023-02-12T21:39:53.120Z,49.50
2023-02-12T21:41:54.454Z,49.36
2023-02-12T21:43:55.761Z,48.91
2023-02-12T21:45:57.054Z,48.70
2023-02-12T21:47:58.364Z,48.38
2023-02-12T21:49:59.655Z,49.00
2023-02-12T21:52:02.233Z,49.71
2023-02-12T21:54:03.799Z,50.15
2023-02-12T21:56:05.163Z,49.25
2023-02-12T21:58:06.465Z,49.38
2023-02-12T22:00:07.750Z,49.81
2023-02-12T22:02:09.109Z,49.73
2023-02-12T22:04:10.602Z,49.24
2023-02-12T22:06:11.935Z,49.75
2023-02-12T22:08:14.729Z,49.49
2023-02-12T22:10:16.044Z,49.96
2023-02-12T22:12:17.445Z,50.04
2023-02-12T22:14:18.783Z,50.18
2023-02-12T22:16:20.186Z,49.83
2023-02-12T22:18:21.528Z,49.52
2023-02-12T22:20:22.864Z,49.89
2023-02-12T22:22:24.168Z,50.08
2023-02-12T22:24:25.473Z,50.32
2023-02-12T22:26:26.780Z,50.63
2023-02-12T22:28:28.104Z,50.77
2023-02-12T22:30:29.432Z,50.20
2023-02-12T22:32:30.861Z,50.42
2023-02-12T22:34:32.294Z,50.14
2023-02-12T22:36:33.564Z,50.41
2023-02-12T22:38:34.863Z,50.46
2023-02-12T22:40:36.179Z,50.74
2023-02-12T22:42:37.470Z,49.52
2023-02-12T22:44:38.759Z,49.87
2023-02-12T22:46:40.182Z,49.89
2023-02-12T22:48:41.528Z,50.34
2023-02-12T22:50:42.853Z,50.37
2023-02-12T22:52:44.146Z,49.98
2023-02-12T22:54:45.461Z,50.09
2023-02-12T22:56:46.867Z,50.55
2023-02-12T22:58:48.190Z,50.41
2023-02-12T23:00:49.533Z,50.18
2023-02-12T23:02:50.880Z,50.34
2023-02-12T23:04:52.222Z,51.12
2023-02-12T23:06:53.556Z,50.77
2023-02-12T23:08:54.884Z,50.95
2023-02-12T23:10:56.458Z,50.66
2023-02-12T23:12:57.872Z,50.07
2023-02-12T23:14:59.218Z,49.93
2023-02-12T23:17:00.572Z,50.14
2023-02-12T23:19:01.970Z,50.58
2023-02-12T23:21:03.274Z,50.05
2023-02-12T23:23:04.588Z,49.34
2023-02-12T23:25:05.888Z,49.38
2023-02-12T23:27:07.190Z,49.59
2023-02-12T23:29:08.638Z,49.56
2023-02-12T23:31:10.041Z,49.34
2023-02-12T23:33:11.454Z,50.18
2023-02-12T23:35:12.752Z,50.10
2023-02-12T23:37:14.046Z,50.41
2023-02-12T23:39:15.399Z,50.69
2023-02-12T23:41:16.741Z,50.40
2023-02-12T23:43:18.044Z,50.53
2023-02-12T23:45:19.346Z,50.71
2023-02-12T23:47:20.650Z,50.57
2023-02-12T23:49:21.952Z,50.46
2023-02-12T23:51:23.275Z,50.59
2023-02-12T23:53:24.607Z,50.75
2023-02-12T23:55:25.921Z,50.53
2023-02-12T23:57:27.230Z,50.24
2023-02-12T23:59:28.555Z,50.74
